sensor_id;sensor_type;location;lat;lon;timestamp;temperature;humidity
20358;DHT22;75325;47.812;13.026;2024-02-26T00:02:21;10.10;55.60
20358;DHT22;75325;47.812;13.026;2024-02-26T00:04:49;10.10;55.40
20358;DHT22;75325;47.812;13.026;2024-02-26T00:07:17;10.00;55.40
20358;DHT22;75325;47.812;13.026;2024-02-26T00:09:46;10.00;55.40
20358;DHT22;75325;47.812;13.026;2024-02-26T00:12:14;9.90;55.40
20358;DHT22;75325;47.812;13.026;2024-02-26T00:14:42;9.90;55.40
20358;DHT22;75325;47.812;13.026;2024-02-26T00:17:12;9.90;55.40
20358;DHT22;75325;47.812;13.026;2024-02-26T00:19:41;9.80;55.40
20358;DHT22;75325;47.812;13.026;2024-02-26T00:22:09;9.80;55.40
20358;DHT22;75325;47.812;13.026;2024-02-26T00:24:39;9.80;55.40
20358;DHT22;75325;47.812;13.026;2024-02-26T00:27:07;9.70;55.30
20358;DHT22;75325;47.812;13.026;2024-02-26T00:29:35;9.70;55.30
20358;DHT22;75325;47.812;13.026;2024-02-26T00:32:04;9.60;55.30
20358;DHT22;75325;47.812;13.026;2024-02-26T00:34:32;9.60;55.30
20358;DHT22;75325;47.812;13.026;2024-02-26T00:37:02;9.50;55.30
20358;DHT22;75325;47.812;13.026;2024-02-26T00:39:30;9.50;55.20
20358;DHT22;75325;47.812;13.026;2024-02-26T00:41:58;9.40;55.30
20358;DHT22;75325;47.812;13.026;2024-02-26T00:44:27;9.40;55.40
20358;DHT22;75325;47.812;13.026;2024-02-26T00:46:55;9.40;55.60
20358;DHT22;75325;47.812;13.026;2024-02-26T00:49:23;9.30;55.50
20358;DHT22;75325;47.812;13.026;2024-02-26T00:51:51;9.30;55.60
20358;DHT22;75325;47.812;13.026;2024-02-26T00:54:20;9.30;55.60
20358;DHT22;75325;47.812;13.026;2024-02-26T00:56:49;9.40;55.80
20358;DHT22;75325;47.812;13.026;2024-02-26T00:59:17;9.40;55.70
20358;DHT22;75325;47.812;13.026;2024-02-26T01:01:45;9.50;56.40
20358;DHT22;75325;47.812;13.026;2024-02-26T01:04:13;9.50;55.70
20358;DHT22;75325;47.812;13.026;2024-02-26T01:06:41;9.50;55.60
20358;DHT22;75325;47.812;13.026;2024-02-26T01:09:09;9.50;55.60
20358;DHT22;75325;47.812;13.026;2024-02-26T01:11:39;9.60;55.50
20358;DHT22;75325;47.812;13.026;2024-02-26T01:14:07;9.60;55.40
20358;DHT22;75325;47.812;13.026;2024-02-26T01:16:35;9.50;55.40
20358;DHT22;75325;47.812;13.026;2024-02-26T01:19:03;9.60;55.80
20358;DHT22;75325;47.812;13.026;2024-02-26T01:21:32;9.50;55.40
20358;DHT22;75325;47.812;13.026;2024-02-26T01:24:00;9.50;55.40
20358;DHT22;75325;47.812;13.026;2024-02-26T01:26:28;9.60;55.50
20358;DHT22;75325;47.812;13.026;2024-02-26T01:28:58;9.60;55.40
20358;DHT22;75325;47.812;13.026;2024-02-26T01:31:26;9.60;55.70
20358;DHT22;75325;47.812;13.026;2024-02-26T01:33:54;9.60;55.40
20358;DHT22;75325;47.812;13.026;2024-02-26T01:36:22;9.60;55.50
20358;DHT22;75325;47.812;13.026;2024-02-26T01:38:51;9.60;55.30
20358;DHT22;75325;47.812;13.026;2024-02-26T01:41:19;9.60;55.30
20358;DHT22;75325;47.812;13.026;2024-02-26T01:43:47;9.60;55.30
20358;DHT22;75325;47.812;13.026;2024-02-26T01:46:16;9.60;55.30
20358;DHT22;75325;47.812;13.026;2024-02-26T01:48:45;9.60;55.30
20358;DHT22;75325;47.812;13.026;2024-02-26T01:51:14;9.60;55.30
20358;DHT22;75325;47.812;13.026;2024-02-26T01:53:44;9.70;55.40
20358;DHT22;75325;47.812;13.026;2024-02-26T01:56:12;9.70;55.40
20358;DHT22;75325;47.812;13.026;2024-02-26T01:58:41;9.80;55.40
20358;DHT22;75325;47.812;13.026;2024-02-26T02:01:09;9.80;55.30
20358;DHT22;75325;47.812;13.026;2024-02-26T02:03:39;9.90;55.30
20358;DHT22;75325;47.812;13.026;2024-02-26T02:06:09;9.90;55.20
20358;DHT22;75325;47.812;13.026;2024-02-26T02:08:38;10.00;55.30
20358;DHT22;75325;47.812;13.026;2024-02-26T02:11:06;10.10;55.30
20358;DHT22;75325;47.812;13.026;2024-02-26T02:13:35;10.20;55.20
20358;DHT22;75325;47.812;13.026;2024-02-26T02:16:03;10.20;55.00
20358;DHT22;75325;47.812;13.026;2024-02-26T02:18:33;10.30;55.00
20358;DHT22;75325;47.812;13.026;2024-02-26T02:21:03;10.40;55.10
20358;DHT22;75325;47.812;13.026;2024-02-26T02:23:31;10.40;55.10
20358;DHT22;75325;47.812;13.026;2024-02-26T02:25:59;10.50;54.80
20358;DHT22;75325;47.812;13.026;2024-02-26T02:28:27;10.50;54.50
20358;DHT22;75325;47.812;13.026;2024-02-26T02:30:55;10.60;54.50
20358;DHT22;75325;47.812;13.026;2024-02-26T02:33:24;10.60;54.10
20358;DHT22;75325;47.812;13.026;2024-02-26T02:35:53;10.70;54.20
20358;DHT22;75325;47.812;13.026;2024-02-26T02:38:24;10.70;54.10
20358;DHT22;75325;47.812;13.026;2024-02-26T02:40:52;10.70;54.20
20358;DHT22;75325;47.812;13.026;2024-02-26T02:43:20;10.60;54.20
20358;DHT22;75325;47.812;13.026;2024-02-26T02:45:49;10.60;54.10
20358;DHT22;75325;47.812;13.026;2024-02-26T02:48:17;10.60;54.70
20358;DHT22;75325;47.812;13.026;2024-02-26T02:50:45;10.50;54.00
20358;DHT22;75325;47.812;13.026;2024-02-26T02:53:13;10.40;53.80
20358;DHT22;75325;47.812;13.026;2024-02-26T02:55:44;10.30;54.00
20358;DHT22;75325;47.812;13.026;2024-02-26T02:58:12;10.20;54.10
20358;DHT22;75325;47.812;13.026;2024-02-26T03:00:40;10.20;54.00
20358;DHT22;75325;47.812;13.026;2024-02-26T03:03:08;10.20;54.20
20358;DHT22;75325;47.812;13.026;2024-02-26T03:05:37;10.20;54.30
20358;DHT22;75325;47.812;13.026;2024-02-26T03:08:05;10.20;54.40
20358;DHT22;75325;47.812;13.026;2024-02-26T03:10:33;10.20;54.80
20358;DHT22;75325;47.812;13.026;2024-02-26T03:13:03;10.20;54.20
20358;DHT22;75325;47.812;13.026;2024-02-26T03:15:31;10.30;54.70
20358;DHT22;75325;47.812;13.026;2024-02-26T03:17:59;10.30;54.30
20358;DHT22;75325;47.812;13.026;2024-02-26T03:20:27;10.30;54.30
20358;DHT22;75325;47.812;13.026;2024-02-26T03:22:56;10.30;54.30
20358;DHT22;75325;47.812;13.026;2024-02-26T03:25:24;10.30;54.20
20358;DHT22;75325;47.812;13.026;2024-02-26T03:27:52;10.30;54.10
20358;DHT22;75325;47.812;13.026;2024-02-26T03:30:21;10.20;54.00
20358;DHT22;75325;47.812;13.026;2024-02-26T03:32:49;10.10;53.90
20358;DHT22;75325;47.812;13.026;2024-02-26T03:35:18;9.90;54.20
20358;DHT22;75325;47.812;13.026;2024-02-26T03:37:46;9.80;53.90
20358;DHT22;75325;47.812;13.026;2024-02-26T03:40:14;9.60;53.80
20358;DHT22;75325;47.812;13.026;2024-02-26T03:42:42;9.50;53.90
20358;DHT22;75325;47.812;13.026;2024-02-26T03:45:10;9.30;54.00
20358;DHT22;75325;47.812;13.026;2024-02-26T03:47:39;9.20;54.10
20358;DHT22;75325;47.812;13.026;2024-02-26T03:50:08;9.10;54.20
20358;DHT22;75325;47.812;13.026;2024-02-26T03:52:36;9.00;54.20
20358;DHT22;75325;47.812;13.026;2024-02-26T03:55:04;9.00;54.40
20358;DHT22;75325;47.812;13.026;2024-02-26T03:57:32;8.90;54.40
20358;DHT22;75325;47.812;13.026;2024-02-26T04:00:01;8.80;54.40
20358;DHT22;75325;47.812;13.026;2024-02-26T04:02:36;8.80;54.40
20358;DHT22;75325;47.812;13.026;2024-02-26T04:05:08;8.80;54.60
20358;DHT22;75325;47.812;13.026;2024-02-26T04:07:37;8.70;54.50
20358;DHT22;75325;47.812;13.026;2024-02-26T04:10:08;8.70;54.50
20358;DHT22;75325;47.812;13.026;2024-02-26T04:12:37;8.60;54.50
20358;DHT22;75325;47.812;13.026;2024-02-26T04:15:06;8.60;54.60
20358;DHT22;75325;47.812;13.026;2024-02-26T04:17:34;8.50;54.50
20358;DHT22;75325;47.812;13.026;2024-02-26T04:20:03;8.50;54.60
20358;DHT22;75325;47.812;13.026;2024-02-26T04:22:33;8.50;54.60
20358;DHT22;75325;47.812;13.026;2024-02-26T04:25:01;8.40;54.70
20358;DHT22;75325;47.812;13.026;2024-02-26T04:27:29;8.40;54.70
20358;DHT22;75325;47.812;13.026;2024-02-26T04:29:57;8.40;54.80
20358;DHT22;75325;47.812;13.026;2024-02-26T04:32:26;8.40;54.90
20358;DHT22;75325;47.812;13.026;2024-02-26T04:34:54;8.40;54.90
20358;DHT22;75325;47.812;13.026;2024-02-26T04:37:23;8.40;54.90
20358;DHT22;75325;47.812;13.026;2024-02-26T04:39:52;8.50;54.90
20358;DHT22;75325;47.812;13.026;2024-02-26T04:42:20;8.50;55.30
20358;DHT22;75325;47.812;13.026;2024-02-26T04:44:48;8.50;55.00
20358;DHT22;75325;47.812;13.026;2024-02-26T04:47:16;8.60;55.00
20358;DHT22;75325;47.812;13.026;2024-02-26T04:49:44;8.60;55.00
20358;DHT22;75325;47.812;13.026;2024-02-26T04:52:13;8.60;55.00
20358;DHT22;75325;47.812;13.026;2024-02-26T04:54:40;8.60;55.00
20358;DHT22;75325;47.812;13.026;2024-02-26T04:57:09;8.70;55.00
20358;DHT22;75325;47.812;13.026;2024-02-26T04:59:37;8.70;55.00
20358;DHT22;75325;47.812;13.026;2024-02-26T05:02:07;8.70;55.00
20358;DHT22;75325;47.812;13.026;2024-02-26T05:04:36;8.70;55.00
20358;DHT22;75325;47.812;13.026;2024-02-26T05:07:04;8.70;55.50
20358;DHT22;75325;47.812;13.026;2024-02-26T05:09:33;8.70;54.90
20358;DHT22;75325;47.812;13.026;2024-02-26T05:12:01;8.70;54.90
20358;DHT22;75325;47.812;13.026;2024-02-26T05:14:30;8.70;54.80
20358;DHT22;75325;47.812;13.026;2024-02-26T05:16:58;8.60;54.80
20358;DHT22;75325;47.812;13.026;2024-02-26T05:19:26;8.60;54.80
20358;DHT22;75325;47.812;13.026;2024-02-26T05:21:55;8.60;54.90
20358;DHT22;75325;47.812;13.026;2024-02-26T05:24:23;8.60;55.00
20358;DHT22;75325;47.812;13.026;2024-02-26T05:26:53;8.60;55.00
20358;DHT22;75325;47.812;13.026;2024-02-26T05:29:21;8.60;55.00
20358;DHT22;75325;47.812;13.026;2024-02-26T05:31:50;8.60;55.00
20358;DHT22;75325;47.812;13.026;2024-02-26T05:34:21;8.60;54.80
20358;DHT22;75325;47.812;13.026;2024-02-26T05:36:50;8.50;54.80
20358;DHT22;75325;47.812;13.026;2024-02-26T05:39:18;8.50;54.80
20358;DHT22;75325;47.812;13.026;2024-02-26T05:41:47;8.50;54.90
20358;DHT22;75325;47.812;13.026;2024-02-26T05:44:16;8.50;54.90
20358;DHT22;75325;47.812;13.026;2024-02-26T05:46:44;8.50;54.90
20358;DHT22;75325;47.812;13.026;2024-02-26T05:49:14;8.40;54.90
20358;DHT22;75325;47.812;13.026;2024-02-26T05:51:42;8.50;54.90
20358;DHT22;75325;47.812;13.026;2024-02-26T05:54:11;8.50;55.00
20358;DHT22;75325;47.812;13.026;2024-02-26T05:56:39;8.50;55.00
20358;DHT22;75325;47.812;13.026;2024-02-26T05:59:07;8.50;55.00
20358;DHT22;75325;47.812;13.026;2024-02-26T06:01:35;8.50;54.90
20358;DHT22;75325;47.812;13.026;2024-02-26T06:04:03;8.50;54.90
20358;DHT22;75325;47.812;13.026;2024-02-26T06:06:33;8.50;54.90
20358;DHT22;75325;47.812;13.026;2024-02-26T06:09:08;8.50;55.00
20358;DHT22;75325;47.812;13.026;2024-02-26T06:11:38;8.60;55.10
20358;DHT22;75325;47.812;13.026;2024-02-26T06:14:06;8.70;55.20
20358;DHT22;75325;47.812;13.026;2024-02-26T06:16:35;8.90;55.70
20358;DHT22;75325;47.812;13.026;2024-02-26T06:19:03;8.90;55.10
20358;DHT22;75325;47.812;13.026;2024-02-26T06:21:33;9.20;55.20
20358;DHT22;75325;47.812;13.026;2024-02-26T06:24:01;9.40;55.60
20358;DHT22;75325;47.812;13.026;2024-02-26T06:26:29;9.50;55.00
20358;DHT22;75325;47.812;13.026;2024-02-26T06:29:00;9.70;55.00
20358;DHT22;75325;47.812;13.026;2024-02-26T06:31:28;9.80;54.90
20358;DHT22;75325;47.812;13.026;2024-02-26T06:33:56;9.90;55.00
20358;DHT22;75325;47.812;13.026;2024-02-26T06:36:25;10.00;54.80
20358;DHT22;75325;47.812;13.026;2024-02-26T06:38:54;10.00;54.80
20358;DHT22;75325;47.812;13.026;2024-02-26T06:41:22;10.00;54.70
20358;DHT22;75325;47.812;13.026;2024-02-26T06:43:54;10.10;54.70
20358;DHT22;75325;47.812;13.026;2024-02-26T06:46:22;10.10;54.70
20358;DHT22;75325;47.812;13.026;2024-02-26T06:48:51;10.20;54.80
20358;DHT22;75325;47.812;13.026;2024-02-26T06:51:21;10.20;54.70
20358;DHT22;75325;47.812;13.026;2024-02-26T06:53:50;10.30;54.80
20358;DHT22;75325;47.812;13.026;2024-02-26T06:56:20;10.30;54.70
20358;DHT22;75325;47.812;13.026;2024-02-26T06:58:48;10.40;54.80
20358;DHT22;75325;47.812;13.026;2024-02-26T07:01:16;10.50;54.80
20358;DHT22;75325;47.812;13.026;2024-02-26T07:03:44;10.60;54.80
20358;DHT22;75325;47.812;13.026;2024-02-26T07:06:12;10.70;54.80
20358;DHT22;75325;47.812;13.026;2024-02-26T07:08:41;10.90;54.80
20358;DHT22;75325;47.812;13.026;2024-02-26T07:11:09;11.00;54.70
20358;DHT22;75325;47.812;13.026;2024-02-26T07:13:39;11.10;54.70
20358;DHT22;75325;47.812;13.026;2024-02-26T07:16:09;11.20;54.60
20358;DHT22;75325;47.812;13.026;2024-02-26T07:18:37;11.40;54.70
20358;DHT22;75325;47.812;13.026;2024-02-26T07:21:05;11.50;54.50
20358;DHT22;75325;47.812;13.026;2024-02-26T07:23:33;11.60;54.50
20358;DHT22;75325;47.812;13.026;2024-02-26T07:26:01;11.70;54.30
20358;DHT22;75325;47.812;13.026;2024-02-26T07:28:30;11.80;54.40
20358;DHT22;75325;47.812;13.026;2024-02-26T07:30:59;12.00;54.30
20358;DHT22;75325;47.812;13.026;2024-02-26T07:33:27;12.10;54.20
20358;DHT22;75325;47.812;13.026;2024-02-26T07:35:56;12.30;53.90
20358;DHT22;75325;47.812;13.026;2024-02-26T07:38:24;12.40;53.70
20358;DHT22;75325;47.812;13.026;2024-02-26T07:41:08;12.60;53.80
20358;DHT22;75325;47.812;13.026;2024-02-26T07:43:36;12.80;53.80
20358;DHT22;75325;47.812;13.026;2024-02-26T07:46:06;12.90;53.80
20358;DHT22;75325;47.812;13.026;2024-02-26T07:48:34;13.10;53.70
20358;DHT22;75325;47.812;13.026;2024-02-26T07:51:02;13.20;53.40
20358;DHT22;75325;47.812;13.026;2024-02-26T07:53:31;13.40;53.50
20358;DHT22;75325;47.812;13.026;2024-02-26T07:55:59;13.60;53.40
20358;DHT22;75325;47.812;13.026;2024-02-26T07:58:27;13.70;53.40
20358;DHT22;75325;47.812;13.026;2024-02-26T08:00:54;13.90;53.20
20358;DHT22;75325;47.812;13.026;2024-02-26T08:03:24;14.00;53.00
20358;DHT22;75325;47.812;13.026;2024-02-26T08:05:52;14.10;52.80
20358;DHT22;75325;47.812;13.026;2024-02-26T08:08:20;14.10;52.40
20358;DHT22;75325;47.812;13.026;2024-02-26T08:10:48;14.20;52.40
20358;DHT22;75325;47.812;13.026;2024-02-26T08:13:16;14.20;52.50
20358;DHT22;75325;47.812;13.026;2024-02-26T08:15:44;14.20;52.20
20358;DHT22;75325;47.812;13.026;2024-02-26T08:18:13;14.40;52.50
20358;DHT22;75325;47.812;13.026;2024-02-26T08:20:42;14.50;52.80
20358;DHT22;75325;47.812;13.026;2024-02-26T08:23:10;15.20;53.50
20358;DHT22;75325;47.812;13.026;2024-02-26T08:25:38;16.00;53.70
20358;DHT22;75325;47.812;13.026;2024-02-26T08:28:06;16.50;52.30
20358;DHT22;75325;47.812;13.026;2024-02-26T08:30:34;16.80;51.70
20358;DHT22;75325;47.812;13.026;2024-02-26T08:33:02;16.90;51.80
20358;DHT22;75325;47.812;13.026;2024-02-26T08:35:31;17.50;52.30
20358;DHT22;75325;47.812;13.026;2024-02-26T08:38:01;18.40;52.40
20358;DHT22;75325;47.812;13.026;2024-02-26T08:40:29;19.20;52.20
20358;DHT22;75325;47.812;13.026;2024-02-26T08:42:57;20.20;51.90
20358;DHT22;75325;47.812;13.026;2024-02-26T08:45:26;21.40;51.50
20358;DHT22;75325;47.812;13.026;2024-02-26T08:47:56;22.50;50.50
20358;DHT22;75325;47.812;13.026;2024-02-26T08:50:25;23.40;48.70
20358;DHT22;75325;47.812;13.026;2024-02-26T08:52:54;24.00;47.50
20358;DHT22;75325;47.812;13.026;2024-02-26T08:55:23;24.60;47.00
20358;DHT22;75325;47.812;13.026;2024-02-26T08:57:52;25.30;47.10
20358;DHT22;75325;47.812;13.026;2024-02-26T09:00:20;25.70;46.10
20358;DHT22;75325;47.812;13.026;2024-02-26T09:02:48;25.80;45.90
20358;DHT22;75325;47.812;13.026;2024-02-26T09:05:16;25.50;45.30
20358;DHT22;75325;47.812;13.026;2024-02-26T09:07:45;24.80;44.80
20358;DHT22;75325;47.812;13.026;2024-02-26T09:10:14;24.40;45.50
20358;DHT22;75325;47.812;13.026;2024-02-26T09:12:43;23.90;45.80
20358;DHT22;75325;47.812;13.026;2024-02-26T09:15:12;23.20;45.60
20358;DHT22;75325;47.812;13.026;2024-02-26T09:17:40;22.70;46.30
20358;DHT22;75325;47.812;13.026;2024-02-26T09:20:09;22.50;47.10
20358;DHT22;75325;47.812;13.026;2024-02-26T09:22:37;22.90;47.80
20358;DHT22;75325;47.812;13.026;2024-02-26T09:25:05;23.20;47.50
20358;DHT22;75325;47.812;13.026;2024-02-26T09:27:34;24.00;47.30
20358;DHT22;75325;47.812;13.026;2024-02-26T09:30:07;24.60;45.50
20358;DHT22;75325;47.812;13.026;2024-02-26T09:32:35;24.90;44.40
20358;DHT22;75325;47.812;13.026;2024-02-26T09:35:04;25.10;43.80
20358;DHT22;75325;47.812;13.026;2024-02-26T09:37:32;24.90;43.40
20358;DHT22;75325;47.812;13.026;2024-02-26T09:40:03;24.90;44.20
20358;DHT22;75325;47.812;13.026;2024-02-26T09:42:33;25.10;44.10
20358;DHT22;75325;47.812;13.026;2024-02-26T09:45:03;25.30;43.80
20358;DHT22;75325;47.812;13.026;2024-02-26T09:47:36;25.20;43.50
20358;DHT22;75325;47.812;13.026;2024-02-26T09:50:06;25.10;42.90
20358;DHT22;75325;47.812;13.026;2024-02-26T09:52:40;25.00;43.20
20358;DHT22;75325;47.812;13.026;2024-02-26T09:55:09;24.50;42.50
20358;DHT22;75325;47.812;13.026;2024-02-26T09:57:37;23.80;42.80
20358;DHT22;75325;47.812;13.026;2024-02-26T10:00:06;23.10;43.20
20358;DHT22;75325;47.812;13.026;2024-02-26T10:02:37;22.30;43.60
20358;DHT22;75325;47.812;13.026;2024-02-26T10:05:06;21.70;43.90
20358;DHT22;75325;47.812;13.026;2024-02-26T10:07:35;21.10;44.80
20358;DHT22;75325;47.812;13.026;2024-02-26T10:10:03;20.70;45.20
20358;DHT22;75325;47.812;13.026;2024-02-26T10:12:31;20.40;45.20
20358;DHT22;75325;47.812;13.026;2024-02-26T10:15:00;20.00;45.70
20358;DHT22;75325;47.812;13.026;2024-02-26T10:17:28;19.90;46.20
20358;DHT22;75325;47.812;13.026;2024-02-26T10:20:04;19.70;46.00
20358;DHT22;75325;47.812;13.026;2024-02-26T10:22:38;19.60;46.40
20358;DHT22;75325;47.812;13.026;2024-02-26T10:25:06;19.50;46.50
20358;DHT22;75325;47.812;13.026;2024-02-26T10:27:35;19.40;46.50
20358;DHT22;75325;47.812;13.026;2024-02-26T10:30:03;19.40;46.90
20358;DHT22;75325;47.812;13.026;2024-02-26T10:32:32;19.50;46.80
20358;DHT22;75325;47.812;13.026;2024-02-26T10:35:00;19.60;47.20
20358;DHT22;75325;47.812;13.026;2024-02-26T10:37:31;19.90;47.50
20358;DHT22;75325;47.812;13.026;2024-02-26T10:40:00;20.10;47.30
20358;DHT22;75325;47.812;13.026;2024-02-26T10:42:28;20.30;47.40
20358;DHT22;75325;47.812;13.026;2024-02-26T10:44:57;20.60;47.30
20358;DHT22;75325;47.812;13.026;2024-02-26T10:47:25;20.80;47.40
20358;DHT22;75325;47.812;13.026;2024-02-26T10:49:54;20.80;46.80
20358;DHT22;75325;47.812;13.026;2024-02-26T10:52:22;20.80;46.80
20358;DHT22;75325;47.812;13.026;2024-02-26T10:54:54;20.60;46.50
20358;DHT22;75325;47.812;13.026;2024-02-26T10:57:27;20.50;46.30
20358;DHT22;75325;47.812;13.026;2024-02-26T10:59:59;20.30;46.20
20358;DHT22;75325;47.812;13.026;2024-02-26T11:02:28;20.30;46.60
20358;DHT22;75325;47.812;13.026;2024-02-26T11:04:56;20.30;46.90
20358;DHT22;75325;47.812;13.026;2024-02-26T11:07:25;20.30;47.10
20358;DHT22;75325;47.812;13.026;2024-02-26T11:09:55;20.40;47.10
20358;DHT22;75325;47.812;13.026;2024-02-26T11:12:24;20.30;45.90
20358;DHT22;75325;47.812;13.026;2024-02-26T11:14:52;20.10;45.40
20358;DHT22;75325;47.812;13.026;2024-02-26T11:17:23;20.00;45.70
20358;DHT22;75325;47.812;13.026;2024-02-26T11:19:55;19.80;45.40
20358;DHT22;75325;47.812;13.026;2024-02-26T11:22:24;19.70;45.80
20358;DHT22;75325;47.812;13.026;2024-02-26T11:24:55;19.70;46.20
20358;DHT22;75325;47.812;13.026;2024-02-26T11:27:25;19.80;46.50
20358;DHT22;75325;47.812;13.026;2024-02-26T11:29:58;19.90;46.70
20358;DHT22;75325;47.812;13.026;2024-02-26T11:32:28;20.00;46.70
20358;DHT22;75325;47.812;13.026;2024-02-26T11:34:58;20.00;46.80
20358;DHT22;75325;47.812;13.026;2024-02-26T11:37:26;20.10;46.90
20358;DHT22;75325;47.812;13.026;2024-02-26T11:39:56;20.20;46.80
20358;DHT22;75325;47.812;13.026;2024-02-26T11:42:27;20.10;46.60
20358;DHT22;75325;47.812;13.026;2024-02-26T11:44:55;20.10;47.10
20358;DHT22;75325;47.812;13.026;2024-02-26T11:47:27;20.00;46.70
20358;DHT22;75325;47.812;13.026;2024-02-26T11:49:56;20.10;46.80
20358;DHT22;75325;47.812;13.026;2024-02-26T11:52:24;20.20;47.20
20358;DHT22;75325;47.812;13.026;2024-02-26T11:54:53;20.40;47.20
20358;DHT22;75325;47.812;13.026;2024-02-26T11:57:23;20.80;47.30
20358;DHT22;75325;47.812;13.026;2024-02-26T11:59:51;21.20;47.30
20358;DHT22;75325;47.812;13.026;2024-02-26T12:02:43;21.30;46.40
20358;DHT22;75325;47.812;13.026;2024-02-26T12:05:12;21.30;45.90
20358;DHT22;75325;47.812;13.026;2024-02-26T12:07:47;21.00;45.20
20358;DHT22;75325;47.812;13.026;2024-02-26T12:10:20;20.70;45.60
20358;DHT22;75325;47.812;13.026;2024-02-26T12:12:59;20.60;45.90
20358;DHT22;75325;47.812;13.026;2024-02-26T12:15:32;20.40;46.20
20358;DHT22;75325;47.812;13.026;2024-02-26T12:18:01;20.40;46.60
20358;DHT22;75325;47.812;13.026;2024-02-26T12:20:31;20.40;46.70
20358;DHT22;75325;47.812;13.026;2024-02-26T12:22:59;20.40;46.50
20358;DHT22;75325;47.812;13.026;2024-02-26T12:25:28;20.40;46.70
20358;DHT22;75325;47.812;13.026;2024-02-26T12:27:57;20.40;46.10
20358;DHT22;75325;47.812;13.026;2024-02-26T12:30:27;20.30;46.40
20358;DHT22;75325;47.812;13.026;2024-02-26T12:33:00;20.30;46.70
20358;DHT22;75325;47.812;13.026;2024-02-26T12:35:28;20.40;46.80
20358;DHT22;75325;47.812;13.026;2024-02-26T12:37:59;20.40;46.90
20358;DHT22;75325;47.812;13.026;2024-02-26T12:40:27;20.50;46.90
20358;DHT22;75325;47.812;13.026;2024-02-26T12:42:56;20.60;47.40
20358;DHT22;75325;47.812;13.026;2024-02-26T12:45:30;20.50;47.10
20358;DHT22;75325;47.812;13.026;2024-02-26T12:47:59;20.50;46.90
20358;DHT22;75325;47.812;13.026;2024-02-26T12:50:27;20.60;47.00
20358;DHT22;75325;47.812;13.026;2024-02-26T12:52:56;20.60;46.80
20358;DHT22;75325;47.812;13.026;2024-02-26T12:55:24;20.60;46.80
20358;DHT22;75325;47.812;13.026;2024-02-26T12:57:53;20.60;47.20
20358;DHT22;75325;47.812;13.026;2024-02-26T13:00:22;20.50;46.90
20358;DHT22;75325;47.812;13.026;2024-02-26T13:02:53;20.60;46.60
20358;DHT22;75325;47.812;13.026;2024-02-26T13:05:22;20.50;46.40
20358;DHT22;75325;47.812;13.026;2024-02-26T13:07:51;20.50;46.90
20358;DHT22;75325;47.812;13.026;2024-02-26T13:10:20;20.60;47.00
20358;DHT22;75325;47.812;13.026;2024-02-26T13:12:48;20.70;47.20
20358;DHT22;75325;47.812;13.026;2024-02-26T13:15:21;20.80;47.20
20358;DHT22;75325;47.812;13.026;2024-02-26T13:17:49;20.90;46.60
20358;DHT22;75325;47.812;13.026;2024-02-26T13:20:26;20.80;46.50
20358;DHT22;75325;47.812;13.026;2024-02-26T13:23:02;20.60;46.70
20358;DHT22;75325;47.812;13.026;2024-02-26T13:25:32;20.50;46.90
20358;DHT22;75325;47.812;13.026;2024-02-26T13:28:09;20.40;47.00
20358;DHT22;75325;47.812;13.026;2024-02-26T13:30:41;20.40;47.00
20358;DHT22;75325;47.812;13.026;2024-02-26T13:33:09;20.30;47.30
20358;DHT22;75325;47.812;13.026;2024-02-26T13:35:39;20.30;47.20
20358;DHT22;75325;47.812;13.026;2024-02-26T13:38:07;20.20;47.20
20358;DHT22;75325;47.812;13.026;2024-02-26T13:40:36;20.30;47.40
20358;DHT22;75325;47.812;13.026;2024-02-26T13:43:04;20.30;47.50
20358;DHT22;75325;47.812;13.026;2024-02-26T13:45:33;20.30;47.50
20358;DHT22;75325;47.812;13.026;2024-02-26T13:48:05;20.40;47.50
20358;DHT22;75325;47.812;13.026;2024-02-26T13:50:33;20.40;47.40
20358;DHT22;75325;47.812;13.026;2024-02-26T13:53:03;20.40;47.20
20358;DHT22;75325;47.812;13.026;2024-02-26T13:55:32;20.50;47.40
20358;DHT22;75325;47.812;13.026;2024-02-26T13:58:00;20.60;47.60
20358;DHT22;75325;47.812;13.026;2024-02-26T14:00:30;20.80;47.70
20358;DHT22;75325;47.812;13.026;2024-02-26T14:03:01;21.00;47.60
20358;DHT22;75325;47.812;13.026;2024-02-26T14:05:29;21.20;47.60
20358;DHT22;75325;47.812;13.026;2024-02-26T14:07:58;21.30;47.40
20358;DHT22;75325;47.812;13.026;2024-02-26T14:10:29;21.40;47.50
20358;DHT22;75325;47.812;13.026;2024-02-26T14:12:59;21.40;47.30
20358;DHT22;75325;47.812;13.026;2024-02-26T14:15:28;21.40;47.20
20358;DHT22;75325;47.812;13.026;2024-02-26T14:17:59;21.40;47.30
20358;DHT22;75325;47.812;13.026;2024-02-26T14:20:29;21.40;47.30
20358;DHT22;75325;47.812;13.026;2024-02-26T14:22:57;21.30;47.20
20358;DHT22;75325;47.812;13.026;2024-02-26T14:25:27;21.30;47.30
20358;DHT22;75325;47.812;13.026;2024-02-26T14:27:58;21.20;47.20
20358;DHT22;75325;47.812;13.026;2024-02-26T14:30:26;21.00;47.10
20358;DHT22;75325;47.812;13.026;2024-02-26T14:32:55;20.90;47.30
20358;DHT22;75325;47.812;13.026;2024-02-26T14:35:23;20.80;47.50
20358;DHT22;75325;47.812;13.026;2024-02-26T14:37:51;20.80;47.60
20358;DHT22;75325;47.812;13.026;2024-02-26T14:40:20;20.70;47.50
20358;DHT22;75325;47.812;13.026;2024-02-26T14:42:48;20.60;47.50
20358;DHT22;75325;47.812;13.026;2024-02-26T14:45:18;20.60;47.60
20358;DHT22;75325;47.812;13.026;2024-02-26T14:47:46;20.50;47.60
20358;DHT22;75325;47.812;13.026;2024-02-26T14:50:14;20.50;47.70
20358;DHT22;75325;47.812;13.026;2024-02-26T14:52:42;20.40;47.70
20358;DHT22;75325;47.812;13.026;2024-02-26T14:55:11;20.30;47.70
20358;DHT22;75325;47.812;13.026;2024-02-26T14:57:39;20.20;47.70
20358;DHT22;75325;47.812;13.026;2024-02-26T15:00:08;20.20;47.90
20358;DHT22;75325;47.812;13.026;2024-02-26T15:02:38;20.20;47.70
20358;DHT22;75325;47.812;13.026;2024-02-26T15:05:06;20.10;47.80
20358;DHT22;75325;47.812;13.026;2024-02-26T15:07:35;20.00;47.80
20358;DHT22;75325;47.812;13.026;2024-02-26T15:10:07;20.00;47.70
20358;DHT22;75325;47.812;13.026;2024-02-26T15:12:35;19.90;47.80
20358;DHT22;75325;47.812;13.026;2024-02-26T15:15:04;19.80;48.00
20358;DHT22;75325;47.812;13.026;2024-02-26T15:17:32;19.80;48.00
20358;DHT22;75325;47.812;13.026;2024-02-26T15:20:03;19.70;48.00
20358;DHT22;75325;47.812;13.026;2024-02-26T15:22:34;19.70;48.70
20358;DHT22;75325;47.812;13.026;2024-02-26T15:25:03;19.70;48.20
20358;DHT22;75325;47.812;13.026;2024-02-26T15:27:31;19.60;48.00
20358;DHT22;75325;47.812;13.026;2024-02-26T15:29:59;19.50;48.30
20358;DHT22;75325;47.812;13.026;2024-02-26T15:32:27;19.30;47.80